createdAt,value
2023-04-01T00:00:45.790Z,100348.31
2023-04-01T00:03:18.102Z,100349.22
2023-04-01T00:05:50.776Z,100344.81
2023-04-01T00:08:23.657Z,100341.31
2023-04-01T00:10:56.866Z,100346.56
2023-04-01T00:13:29.076Z,100346.56
2023-04-01T00:16:03.417Z,100339.59
2023-04-01T00:18:34.893Z,100342.19
2023-04-01T00:21:06.035Z,100342.19
2023-04-01T00:23:37.058Z,100345.69
2023-04-01T00:26:09.369Z,100341.34
2023-04-01T00:28:43.562Z,100344.78
2023-04-01T00:31:16.825Z,100347.38
2023-04-01T00:33:48.030Z,100348.25
2023-04-01T00:36:21.140Z,100343.00
2023-04-01T00:38:53.386Z,100348.19
2023-04-01T00:41:24.485Z,100343.88
2023-04-01T00:43:56.244Z,100351.69
2023-04-01T00:46:29.092Z,100347.31
2023-04-01T00:49:00.869Z,100341.25
2023-04-01T00:51:33.986Z,100339.50
2023-04-01T00:54:05.937Z,100342.09
2023-04-01T00:56:41.364Z,100339.50
2023-04-01T00:59:18.423Z,100336.03
2023-04-01T01:01:52.503Z,100338.66
2023-04-01T01:04:28.706Z,100341.22
2023-04-01T01:07:12.840Z,100338.63
2023-04-01T01:09:53.182Z,100329.84
2023-04-01T01:12:29.374Z,100329.03
2023-04-01T01:15:08.804Z,100329.88
2023-04-01T01:17:56.286Z,100332.47
2023-04-01T01:20:52.057Z,100329.00
2023-04-01T01:24:07.681Z,100336.81
2023-04-01T01:26:50.482Z,100334.19
2023-04-01T01:30:11.197Z,100330.69
2023-04-01T01:33:20.421Z,100342.88
2023-04-01T01:35:55.786Z,100334.16
2023-04-01T01:38:30.951Z,100331.53
2023-04-01T01:41:09.546Z,100339.38
2023-04-01T01:43:45.521Z,100332.41
2023-04-01T01:46:22.461Z,100341.09
2023-04-01T01:48:54.774Z,100337.63
2023-04-01T01:51:31.013Z,100329.81
2023-04-01T01:54:04.458Z,100338.47
2023-04-01T01:56:37.734Z,100338.47
2023-04-01T01:59:15.266Z,100332.34
2023-04-01T02:01:50.320Z,100335.88
2023-04-01T02:04:22.975Z,100338.50
2023-04-01T02:07:03.560Z,100331.53
2023-04-01T02:09:38.583Z,100324.63
2023-04-01T02:12:12.724Z,100332.47
2023-04-01T02:14:50.806Z,100326.38
2023-04-01T02:17:25.127Z,100330.69
2023-04-01T02:19:59.598Z,100334.19
2023-04-01T02:22:35.367Z,100331.56
2023-04-01T02:25:11.481Z,100335.03
2023-04-01T02:27:46.045Z,100328.94
2023-04-01T02:30:18.827Z,100339.31
2023-04-01T02:32:50.540Z,100340.19
2023-04-01T02:35:22.171Z,100338.41
2023-04-01T02:37:57.258Z,100334.09
2023-04-01T02:40:26.467Z,100337.56
2023-04-01T02:42:54.574Z,100334.06
2023-04-01T02:45:22.673Z,100338.41
2023-04-01T02:47:50.797Z,100345.34
2023-04-01T02:50:18.929Z,100337.56
2023-04-01T02:52:47.031Z,100340.13
2023-04-01T02:55:16.768Z,100339.25
2023-04-01T02:57:44.751Z,100337.59
2023-04-01T03:00:14.271Z,100341.00
2023-04-01T03:02:42.625Z,100334.94
2023-04-01T03:05:11.168Z,100333.22
2023-04-01T03:07:39.382Z,100329.69
2023-04-01T03:10:09.097Z,100335.81
2023-04-01T03:12:38.670Z,100346.28
2023-04-01T03:15:10.615Z,100345.41
2023-04-01T03:17:41.211Z,100347.09
2023-04-01T03:20:11.818Z,100344.53
2023-04-01T03:22:42.815Z,100354.06
2023-04-01T03:25:12.661Z,100346.22
2023-04-01T03:27:42.729Z,100350.53
2023-04-01T03:30:11.777Z,100347.91
2023-04-01T03:32:48.715Z,100353.97
2023-04-01T03:35:17.000Z,100350.53
2023-04-01T03:37:45.420Z,100362.72
2023-04-01T03:40:13.910Z,100359.25
2023-04-01T03:42:43.746Z,100354.03
2023-04-01T03:45:13.792Z,100351.44
2023-04-01T03:47:42.264Z,100360.13
2023-04-01T03:50:11.622Z,100357.53
2023-04-01T03:52:39.767Z,100368.78
2023-04-01T03:55:08.846Z,100361.91
2023-04-01T03:57:37.892Z,100361.03
2023-04-01T04:00:17.823Z,100367.97
2023-04-01T04:02:49.411Z,100367.06
2023-04-01T04:05:22.501Z,100362.72
2023-04-01T04:07:50.809Z,100374.03
2023-04-01T04:10:19.016Z,100375.75
2023-04-01T04:12:47.104Z,100369.66
2023-04-01T04:15:16.215Z,100368.78
2023-04-01T04:17:46.405Z,100364.47
2023-04-01T04:20:16.691Z,100365.34
2023-04-01T04:22:44.767Z,100364.44
2023-04-01T04:25:13.037Z,100369.69
2023-04-01T04:27:41.420Z,100363.66
2023-04-01T04:30:12.923Z,100374.06
2023-04-01T04:32:43.141Z,100366.22
2023-04-01T04:35:14.477Z,100365.41
2023-04-01T04:37:42.748Z,100368.88
2023-04-01T04:40:11.635Z,100365.38
2023-04-01T04:42:40.421Z,100368.94
2023-04-01T04:45:13.660Z,100375.88
2023-04-01T04:47:48.111Z,100380.25
2023-04-01T04:50:17.965Z,100375.03
2023-04-01T04:52:46.124Z,100367.28
2023-04-01T04:55:16.100Z,100367.28
2023-04-01T04:57:47.293Z,100378.56
2023-04-01T05:00:15.972Z,100379.44
2023-04-01T05:02:51.086Z,100376.84
2023-04-01T05:05:20.932Z,100372.53
2023-04-01T05:07:49.367Z,100377.78
2023-04-01T05:10:17.542Z,100378.66
2023-04-01T05:12:46.387Z,100387.38
2023-04-01T05:15:19.081Z,100386.50
2023-04-01T05:17:47.367Z,100383.06
2023-04-01T05:20:17.319Z,100384.84
2023-04-01T05:22:46.878Z,100383.09
2023-04-01T05:25:15.393Z,100384.03
2023-04-01T05:27:43.439Z,100377.97
2023-04-01T05:30:12.647Z,100395.41
2023-04-01T05:33:01.928Z,100391.03
2023-04-01T05:35:30.325Z,100388.41
2023-04-01T05:37:59.790Z,100392.84
2023-04-01T05:40:27.972Z,100386.72
2023-04-01T05:42:56.436Z,100395.47
2023-04-01T05:45:24.756Z,100393.75
2023-04-01T05:48:11.090Z,100395.53
2023-04-01T05:50:42.897Z,100386.84
2023-04-01T05:53:13.960Z,100394.66
2023-04-01T05:55:44.450Z,100393.81
2023-04-01T05:58:12.659Z,100399.88
2023-04-01T06:00:43.538Z,100399.00
2023-04-01T06:03:12.056Z,100403.38
2023-04-01T06:05:43.133Z,100408.59
2023-04-01T06:08:19.215Z,100402.47
2023-04-01T06:11:01.739Z,100405.97
2023-04-01T06:13:54.676Z,100403.44
2023-04-01T06:16:34.004Z,100401.69
2023-04-01T06:19:13.118Z,100403.50
2023-04-01T06:22:10.390Z,100409.59
2023-04-01T06:25:04.960Z,100409.59
2023-04-01T06:27:49.374Z,100411.34
2023-04-01T06:30:42.236Z,100398.34
2023-04-01T06:33:38.936Z,100404.44
2023-04-01T06:36:21.762Z,100419.22
2023-04-01T06:39:04.193Z,100406.19
2023-04-01T06:42:00.711Z,100407.97
2023-04-01T06:44:41.485Z,100414.91
2023-04-01T06:47:45.475Z,100416.63
2023-04-01T06:50:39.181Z,100413.16
2023-04-01T06:53:34.192Z,100416.63
2023-04-01T06:56:32.170Z,100419.22
2023-04-01T06:59:12.629Z,100421.00
2023-04-01T07:01:45.493Z,100427.06
2023-04-01T07:04:17.485Z,100414.91
2023-04-01T07:06:52.336Z,100420.13
2023-04-01T07:09:23.988Z,100425.31
2023-04-01T07:12:17.637Z,100423.59
2023-04-01T07:15:26.999Z,100430.59
2023-04-01T07:17:59.593Z,100427.97
2023-04-01T07:20:31.899Z,100441.03
2023-04-01T07:23:02.829Z,100435.81
2023-04-01T07:25:39.945Z,100434.09
2023-04-01T07:28:36.907Z,100441.09
2023-04-01T07:31:32.878Z,100441.06
2023-04-01T07:34:08.791Z,100445.44
2023-04-01T07:36:44.148Z,100448.03
2023-04-01T07:39:28.556Z,100450.63
2023-04-01T07:42:15.900Z,100442.72
2023-04-01T07:44:54.466Z,100453.13
2023-04-01T07:47:47.905Z,100455.72
2023-04-01T07:50:23.234Z,100454.84
2023-04-01T07:53:03.520Z,100458.31
2023-04-01T07:55:36.636Z,100458.31
2023-04-01T07:58:12.064Z,100463.53
2023-04-01T08:00:54.183Z,100460.09
2023-04-01T08:03:48.254Z,100467.03
2023-04-01T08:06:22.300Z,100467.94
2023-04-01T08:09:04.290Z,100470.59
2023-04-01T08:12:19.516Z,100480.16
2023-04-01T08:15:12.437Z,100474.94
2023-04-01T08:18:16.337Z,100481.91
2023-04-01T08:20:50.673Z,100481.03
2023-04-01T08:23:23.380Z,100485.34
2023-04-01T08:25:58.752Z,100485.41
2023-04-01T08:28:35.645Z,100491.53
2023-04-01T08:31:13.566Z,100494.16
2023-04-01T08:33:50.840Z,100482.03
2023-04-01T08:36:28.606Z,100494.25
2023-04-01T08:39:19.672Z,100490.81
2023-04-01T08:42:19.637Z,100497.81
2023-04-01T08:45:29.908Z,100492.63
2023-04-01T08:48:44.923Z,100501.34
2023-04-01T08:51:52.790Z,100493.50
2023-04-01T08:54:41.676Z,100494.41
2023-04-01T08:57:24.482Z,100492.66
2023-04-01T09:00:32.607Z,100503.09
2023-04-01T09:03:42.216Z,100506.59
2023-04-01T09:06:44.571Z,100515.31
2023-04-01T09:09:41.091Z,100514.47
2023-04-01T09:12:39.325Z,100517.09
2023-04-01T09:15:35.241Z,100511.03
2023-04-01T09:18:43.797Z,100513.66
2023-04-01T09:21:36.817Z,100521.47
2023-04-01T09:24:55.910Z,100511.03
2023-04-01T09:27:32.590Z,100518.00
2023-04-01T09:30:46.923Z,100524.97
2023-04-01T09:33:53.501Z,100521.53
2023-04-01T09:36:47.051Z,100520.66
2023-04-01T09:39:43.877Z,100518.97
2023-04-01T09:42:48.110Z,100511.13
2023-04-01T09:45:45.218Z,100514.69
2023-04-01T09:48:38.429Z,100521.66
2023-04-01T09:51:23.582Z,100515.56
2023-04-01T09:54:10.944Z,100529.56
2023-04-01T09:57:21.482Z,100537.41
2023-04-01T10:00:42.171Z,100533.06
2023-04-01T10:07:31.909Z,100538.31
2023-04-01T10:10:42.464Z,100538.28
2023-04-01T10:14:04.609Z,100539.16
2023-04-01T10:17:14.946Z,100540.91
2023-04-01T10:20:20.449Z,100542.66
2023-04-01T10:23:22.261Z,100545.25
2023-04-01T10:26:24.502Z,100545.25
2023-04-01T10:29:51.762Z,100547.88
2023-04-01T10:33:05.627Z,100549.63
2023-04-01T10:36:20.952Z,100557.47
2023-04-01T10:39:34.768Z,100560.09
2023-04-01T10:42:57.112Z,100558.34
2023-04-01T10:46:13.678Z,100561.81
2023-04-01T10:49:04.965Z,100557.47
2023-04-01T10:52:32.804Z,100555.72
2023-04-01T10:55:41.825Z,100560.94
2023-04-01T10:59:14.043Z,100559.19
2023-04-01T11:02:31.156Z,100568.75
2023-04-01T11:05:46.178Z,100569.63
2023-04-01T11:08:53.307Z,100562.66
2023-04-01T11:12:04.314Z,100573.13
2023-04-01T11:15:15.896Z,100567.03
2023-04-01T11:18:23.822Z,100581.84
2023-04-01T11:21:33.592Z,100583.59
2023-04-01T11:24:46.698Z,100580.13
2023-04-01T11:28:09.267Z,100596.69
2023-04-01T11:31:03.941Z,100589.72
2023-04-01T11:33:42.409Z,100587.09
2023-04-01T11:36:29.878Z,100598.44
2023-04-01T11:39:23.359Z,100587.09
2023-04-01T11:42:26.488Z,100593.19
2023-04-01T11:45:38.645Z,100591.44
2023-04-01T11:48:32.532Z,100599.31
2023-04-01T11:51:19.997Z,100592.34
2023-04-01T11:54:01.791Z,100591.50
2023-04-01T11:56:55.951Z,100593.25
2023-04-01T11:59:53.722Z,100601.09
2023-04-01T12:02:33.351Z,100611.59
2023-04-01T12:05:36.673Z,100604.59
2023-04-01T12:08:34.722Z,100611.59
2023-04-01T12:11:19.465Z,100613.38
2023-04-01T12:13:58.514Z,100615.06
2023-04-01T12:16:49.587Z,100610.72
2023-04-01T12:19:30.248Z,100619.47
2023-04-01T12:22:12.414Z,100621.19
2023-04-01T12:24:49.925Z,100620.31
2023-04-01T12:33:22.057Z,100633.41
2023-04-01T12:36:02.154Z,100631.66
2023-04-01T12:38:38.436Z,100629.03
2023-04-01T12:41:26.932Z,100637.78
2023-04-01T12:44:39.034Z,100639.50
2023-04-01T12:47:36.086Z,100635.13
2023-04-01T12:50:32.206Z,100636.91
2023-04-01T12:53:22.667Z,100643.91
2023-04-01T12:55:53.674Z,100644.75
2023-04-01T12:59:09.135Z,100649.13
2023-04-01T13:02:01.989Z,100647.41
2023-04-01T13:05:11.928Z,100651.75
2023-04-01T13:07:59.335Z,100653.50
2023-04-01T13:10:40.716Z,100654.38
2023-04-01T13:13:31.514Z,100663.97
2023-04-01T13:16:09.466Z,100664.00
2023-04-01T13:18:51.619Z,100663.09
2023-04-01T13:21:29.409Z,100663.13
2023-04-01T13:24:06.040Z,100671.84
2023-04-01T13:26:43.265Z,100674.47
2023-04-01T13:29:16.172Z,100678.84
2023-04-01T13:32:04.402Z,100673.59
2023-04-01T13:34:48.565Z,100676.19
2023-04-01T13:37:28.269Z,100673.56
2023-04-01T13:40:36.479Z,100666.63
2023-04-01T13:43:11.076Z,100677.97
2023-04-01T13:45:51.850Z,100666.59
2023-04-01T13:48:40.570Z,100686.69
2023-04-01T13:51:41.141Z,100683.19
2023-04-01T13:54:35.358Z,100683.19
2023-04-01T13:57:19.294Z,100675.34
2023-04-01T14:00:09.522Z,100691.06
2023-04-01T14:03:02.715Z,100691.91
2023-04-01T14:05:50.312Z,100697.16
2023-04-01T14:08:29.648Z,100700.66
2023-04-01T14:11:12.018Z,100707.66
2023-04-01T14:13:48.779Z,100695.41
2023-04-01T14:16:51.472Z,100704.16
2023-04-01T14:19:31.835Z,100707.63
2023-04-01T14:22:11.758Z,100698.91
2023-04-01T14:24:59.660Z,100712.00
2023-04-01T14:27:47.112Z,100713.72
2023-04-01T14:30:37.661Z,100718.09
2023-04-01T14:33:21.791Z,100706.75
2023-04-01T14:36:04.436Z,100715.50
2023-04-01T14:38:49.944Z,100718.97
2023-04-01T14:41:28.866Z,100723.31
2023-04-01T14:44:19.916Z,100725.94
2023-04-01T14:47:14.076Z,100728.53
2023-04-01T14:49:45.112Z,100728.53
2023-04-01T14:52:18.346Z,100739.91
2023-04-01T14:54:50.614Z,100740.75
2023-04-01T14:57:26.308Z,100749.47
2023-04-01T15:00:01.471Z,100754.69
2023-04-01T15:02:57.790Z,100743.31
2023-04-01T15:05:35.866Z,100752.97
2023-04-01T15:08:23.622Z,100751.19
2023-04-01T15:11:15.096Z,100754.69
2023-04-01T15:14:11.853Z,100756.41
2023-04-01T15:16:48.568Z,100754.69
2023-04-01T15:19:26.001Z,100767.78
2023-04-01T15:22:25.737Z,100779.97
2023-04-01T15:25:08.043Z,100784.31
2023-04-01T15:27:49.083Z,100784.28
2023-04-01T15:30:30.018Z,100786.91
2023-04-01T15:33:15.119Z,100788.63
2023-04-01T15:35:49.340Z,100791.25
2023-04-01T15:38:28.960Z,100790.31
2023-04-01T15:41:04.964Z,100802.56
2023-04-01T15:43:43.495Z,100795.56
2023-04-01T15:46:26.794Z,100802.53
2023-04-01T15:49:05.663Z,100805.97
2023-04-01T15:51:53.920Z,100812.06
2023-04-01T15:54:54.675Z,100815.59
2023-04-01T15:57:31.013Z,100830.38
2023-04-01T16:00:25.336Z,100827.75
2023-04-01T16:03:09.646Z,100831.22
2023-04-01T18:12:23.619Z,100968.72
2023-04-01T18:15:08.379Z,100978.31
2023-04-01T18:17:49.240Z,100972.22
2023-04-01T18:20:38.591Z,100978.31
2023-04-01T18:23:22.710Z,100976.63
2023-04-01T18:25:55.384Z,100981.00
2023-04-01T18:28:35.176Z,100980.09
2023-04-01T18:31:11.304Z,100980.16
2023-04-01T18:33:50.171Z,100984.47
2023-04-01T18:36:24.025Z,100984.53
2023-04-01T18:38:57.082Z,100983.59
2023-04-01T18:41:37.430Z,100985.38
2023-04-01T18:44:33.029Z,100981.88
2023-04-01T18:47:13.619Z,100986.25
2023-04-01T18:49:48.234Z,100988.03
2023-04-01T18:52:23.030Z,100990.66
2023-04-01T18:55:10.984Z,100993.28
2023-04-01T18:57:48.344Z,100997.63
2023-04-01T19:00:23.668Z,100998.53
2023-04-01T19:02:59.300Z,100999.38
2023-04-01T19:06:18.510Z,101000.22
2023-04-01T19:08:47.077Z,100998.53
2023-04-01T19:11:26.405Z,101006.38
2023-04-01T19:14:02.695Z,101004.59
2023-04-01T19:16:47.070Z,101009.81
2023-04-01T19:19:26.035Z,101009.75
2023-04-01T19:21:58.457Z,101016.69
2023-04-01T19:24:44.488Z,101014.94
2023-04-01T19:27:22.692Z,101017.47
2023-04-01T19:30:07.379Z,101021.84
2023-04-01T19:32:50.574Z,101022.66
2023-04-01T19:35:28.476Z,101020.88
2023-04-01T19:38:04.532Z,101027.81
2023-04-01T19:40:46.602Z,101039.13
2023-04-01T19:43:28.625Z,101039.94
2023-04-01T19:46:04.732Z,101039.00
2023-04-01T19:48:46.783Z,101037.22
2023-04-01T19:51:22.651Z,101046.81
2023-04-01T19:54:00.931Z,101052.03
2023-04-01T19:56:38.184Z,101047.66
2023-04-01T19:59:18.955Z,101050.22
2023-04-01T20:01:54.999Z,101051.94
2023-04-01T20:04:30.596Z,101046.66
2023-04-01T20:07:06.110Z,101058.78
2023-04-01T20:09:51.590Z,101058.75
2023-04-01T20:12:30.298Z,101068.34
2023-04-01T20:15:00.842Z,101069.94
2023-04-01T20:17:35.129Z,101075.94
2023-04-01T20:20:21.310Z,101081.06
2023-04-01T20:22:58.204Z,101084.50
2023-04-01T20:25:29.105Z,101085.31
2023-04-01T20:28:00.504Z,101088.69
2023-04-01T20:30:57.557Z,101093.00
2023-04-01T20:33:49.194Z,101090.22
2023-04-01T20:36:27.762Z,101093.56
2023-04-01T20:39:22.507Z,101091.78
2023-04-01T20:42:07.748Z,101098.63
2023-04-01T20:44:43.440Z,101099.44
2023-04-01T20:47:25.373Z,101105.47
2023-04-01T20:50:00.430Z,101109.69
2023-04-01T20:52:35.873Z,101116.59
2023-04-01T20:55:54.696Z,101113.91
2023-04-01T20:58:30.263Z,101116.44
2023-04-01T21:01:08.163Z,101121.66
2023-04-01T21:03:47.349Z,101120.63
2023-04-01T21:06:31.159Z,101134.47
2023-04-01T21:09:13.360Z,101128.38
2023-04-01T21:11:51.997Z,101125.69
2023-04-01T21:15:06.113Z,101131.78
2023-04-01T21:17:53.317Z,101140.38
2023-04-01T21:20:39.561Z,101137.75
2023-04-01T21:23:25.675Z,101145.56
2023-04-01T21:26:06.228Z,101136.75
2023-04-01T21:28:44.016Z,101143.75
2023-04-01T21:31:37.977Z,101144.63
2023-04-01T21:34:32.800Z,101152.41
2023-04-01T21:37:16.278Z,101155.91
2023-04-01T21:40:04.677Z,101161.97
2023-04-01T21:42:45.861Z,101159.25
2023-04-01T21:45:34.027Z,101165.25
2023-04-01T21:48:40.329Z,101166.91
2023-04-01T21:51:41.505Z,101168.66
2023-04-01T21:54:34.511Z,101166.84
2023-04-01T21:57:42.294Z,101171.16
2023-04-01T22:00:21.278Z,101168.53
2023-04-01T22:03:25.948Z,101170.31
2023-04-01T22:06:02.731Z,101170.25
2023-04-01T22:08:44.233Z,101166.72
2023-04-01T22:11:22.909Z,101174.41
2023-04-01T22:13:56.051Z,101179.59
2023-04-01T22:16:33.259Z,101185.63
2023-04-01T22:19:08.646Z,101186.50
2023-04-01T22:21:45.831Z,101184.75
2023-04-01T22:24:22.097Z,101194.44
2023-04-01T22:26:58.726Z,101191.69
2023-04-01T22:29:33.557Z,101190.78
2023-04-01T22:32:09.450Z,101190.63
2023-04-01T22:34:46.519Z,101194.94
2023-04-01T22:37:22.909Z,101195.94
2023-04-01T22:40:03.640Z,101201.31
2023-04-01T22:42:44.130Z,101198.81
2023-04-01T22:45:44.383Z,101200.75
2023-04-01T22:48:22.322Z,101204.31
2023-04-01T22:53:41.778Z,101199.06
2023-04-01T22:56:17.151Z,101203.41
2023-04-01T22:58:51.488Z,101206.75
2023-04-01T23:01:23.926Z,101217.09
2023-04-01T23:03:54.090Z,101218.91
2023-04-01T23:06:28.754Z,101213.66
2023-04-01T23:09:08.915Z,101220.53
